Canyon, MN

9:27 PM CDT on August 27, 2014 (GMT -0500)
Brevator Township | Change Station
CLOSE
Current Station
Personal Weather Station
Location: Saginaw, MN
Elevation: 1329 ft
Nearby Weather Stations

Elev 1329 ft 46.85 °N, 92.47 °W | Updated 0 second ago

Clear
Clear
55.4 °F
Feels Like 55.4 °F
N
0.0
Wind Variable Wind from SE
Gusts 0.0 mph

Today
High -- | Low -- °F
--% Chance of Precip.
Yesterday
High -- | Low -- °F
Precip. -- in
6:22 AM 7:59 PM
Waxing Crescent, 6% visible
Pressure 30.15 in
Visibility 10.0 miles
Clouds Few 5500 ft
Dew Point 54 °F
Humidity 94%
Rainfall 0.03 in
Snow Depth Not available.
UV 0 out of 12
Pollen 8.00 out of 12
Air Quality Not available.
Flu Activity Not available.
METAR KDLH 280155Z 11003KT 10SM FEW055 16/12 A3014 RMK AO2 SLP209 T01610117 $

More Conditions Fewer Conditions

Pressure 30.15 in
Visibility 10.0 miles
Clouds Few 5500 ft
Dew Point 54 °F
Humidity 94%
Rainfall 0.03 in
Snow Depth Not available.
UV 0 out of 12
Pollen 8.00 out of 12
Air Quality Not available.
Flu Activity Not available.
METAR KDLH 280155Z 11003KT 10SM FEW055 16/12 A3014 RMK AO2 SLP209 T01610117 $

More Conditions Fewer Conditions

10-Day Weather Forecast

Almanac

Astronomy

Aug. 27, 2014 Rise Set
Actual Time 6:22 AM CDT 7:59 PM CDT
Civil Twilight 5:50 AM CDT 8:31 PM CDT
Nautical Twilight 5:11 AM CDT 9:09 PM CDT
Astronomical Twilight 4:29 AM CDT 9:52 PM CDT
Moon 8:29 AM CDT (8/27) 8:39 PM CDT (8/27)
Length of Visible Light 14h 40m
Length of Day
13h 36m
Tomorrow will be 3m 12s shorter.
Waxing Crescent, 6% of the Moon is Illuminated
Today
Waxing Crescent
Sep 2
First Quarter
Sep 8
Full
Sep 15
Last Quarter
Sep 24
New

Today's Extremes

State Highs State Lows

Community

WunderPhotos

Upload Photos

1,747,872 photos uploaded!

Nearby

Snow Depth

Station Depth Elevation
No new snow has been reported.

Earthquake Activity

City Distance Mag. Time & Date
No recent earthquake activity has been reported nearby.
Minimum magnitude displayed is 2.5.

Coastal Water Temperatures

Place Temperature
Duluth, MN 64.9 °F

Nearby Weather Stations